Time;durP1;ratioP1;P1;durP2;ratioP2;P2;SDS_P1;SDS_P2;PMS_P1;PMS_P2;Temp;Humidity;BMP_temperature;BMP_pressure;BME280_temperature;BME280_humidity;BME280_pressure;Samples;Min_cycle;Max_cycle;Signal;HPM_P1;HPM_P2
2024/02/24 00:00:32;;;;;;;0.55;0.55;;;3.40;99.90;;;;;;5093991;28;20221;-73
2024/02/24 00:02:58;;;;;;;0.60;0.60;;;3.30;99.90;;;;;;5095076;28;20655;-71
2024/02/24 00:05:25;;;;;;;0.85;0.85;;;3.30;99.90;;;;;;5113130;28;20195;-73
2024/02/24 00:07:54;;;;;;;0.68;0.68;;;3.30;99.90;;;;;;5094940;28;20199;-73
2024/02/24 00:10:20;;;;;;;0.70;0.70;;;3.40;99.90;;;;;;5113039;28;20192;-72
2024/02/24 00:12:46;;;;;;;0.70;0.70;;;3.40;99.90;;;;;;5113220;28;20195;-72
2024/02/24 00:15:12;;;;;;;0.60;0.60;;;3.40;99.90;;;;;;5094777;28;20700;-72
2024/02/24 00:17:40;;;;;;;0.60;0.60;;;3.40;99.90;;;;;;5112893;28;20225;-72
2024/02/24 00:20:21;;;;;;;0.50;0.50;;;3.40;99.90;;;;;;5094753;28;20243;-73
2024/02/24 00:22:46;;;;;;;0.70;0.70;;;3.50;99.90;;;;;;5094862;28;20956;-73
2024/02/24 00:25:12;;;;;;;0.57;0.57;;;3.50;99.90;;;;;;5112975;28;20195;-72
2024/02/24 00:27:37;;;;;;;0.68;0.68;;;3.40;99.90;;;;;;5112931;28;20195;-72
2024/02/24 00:30:04;;;;;;;0.60;0.60;;;3.50;99.90;;;;;;5113046;28;20230;-73
2024/02/24 00:32:29;;;;;;;0.93;0.93;;;3.60;99.90;;;;;;5112812;28;20195;-73
2024/02/24 00:34:55;;;;;;;0.70;0.70;;;3.60;99.90;;;;;;5094780;28;20206;-73
2024/02/24 00:37:21;;;;;;;0.60;0.60;;;3.60;99.90;;;;;;5112704;28;20187;-73
2024/02/24 00:39:46;;;;;;;0.80;0.80;;;3.70;99.90;;;;;;5112904;28;20191;-71
2024/02/24 00:42:12;;;;;;;0.70;0.70;;;3.70;99.90;;;;;;5112890;28;20582;-73
2024/02/24 00:44:37;;;;;;;0.60;0.60;;;3.70;99.90;;;;;;5112740;28;20191;-73
2024/02/24 00:47:03;;;;;;;0.55;0.55;;;3.80;99.90;;;;;;5112834;28;20195;-73
2024/02/24 00:49:31;;;;;;;0.60;0.60;;;3.80;99.90;;;;;;5094459;28;20234;-73
2024/02/24 00:51:57;;;;;;;5.07;2.00;;;3.90;99.90;;;;;;5094513;28;20675;-73
2024/02/24 00:54:23;;;;;;;0.63;0.63;;;3.90;99.90;;;;;;5112383;28;20227;-73
2024/02/24 00:56:48;;;;;;;0.60;0.60;;;3.90;99.90;;;;;;5094548;28;20202;-72
2024/02/24 00:59:14;;;;;;;0.60;0.60;;;4.00;99.90;;;;;;5112732;28;20214;-72
2024/02/24 01:01:40;;;;;;;0.70;0.70;;;4.00;99.90;;;;;;5112575;28;20685;-72
2024/02/24 01:04:05;;;;;;;0.60;0.60;;;3.90;99.90;;;;;;5112660;28;20195;-72
2024/02/24 01:06:31;;;;;;;0.60;0.60;;;3.90;99.90;;;;;;5112475;28;20191;-73
2024/02/24 01:08:56;;;;;;;0.60;0.60;;;4.00;99.90;;;;;;5112599;28;20191;-72
2024/02/24 01:11:22;;;;;;;0.68;0.68;;;4.00;99.90;;;;;;5112540;28;20191;-72
2024/02/24 01:13:48;;;;;;;0.60;0.60;;;4.00;99.90;;;;;;5116266;28;20223;-72
2024/02/24 01:16:14;;;;;;;0.60;0.60;;;4.10;99.90;;;;;;5116460;28;20539;-72
2024/02/24 01:18:39;;;;;;;1.67;1.52;;;4.10;99.90;;;;;;5116193;28;20237;-72
2024/02/24 01:21:05;;;;;;;0.50;0.50;;;4.10;99.90;;;;;;5098014;28;20292;-72
2024/02/24 01:23:32;;;;;;;0.65;0.65;;;4.20;99.90;;;;;;5116356;28;20196;-72
2024/02/24 01:25:58;;;;;;;0.80;0.80;;;4.20;99.90;;;;;;5116136;28;20240;-71
2024/02/24 01:28:23;;;;;;;0.50;0.50;;;4.10;99.90;;;;;;5116138;28;20204;-72
2024/02/24 01:30:49;;;;;;;0.70;0.70;;;4.10;99.90;;;;;;5116234;28;20279;-72
2024/02/24 01:33:15;;;;;;;0.68;0.68;;;4.10;99.90;;;;;;5116233;28;20291;-72
2024/02/24 01:35:40;;;;;;;0.60;0.60;;;4.00;99.90;;;;;;5097602;28;20192;-72
2024/02/24 01:38:06;;;;;;;0.80;0.80;;;3.90;99.90;;;;;;5097489;28;20218;-72
2024/02/24 01:40:32;;;;;;;0.70;0.70;;;3.90;99.90;;;;;;5115576;28;20183;-72
2024/02/24 01:42:58;;;;;;;0.80;0.80;;;3.80;99.90;;;;;;5115621;28;20184;-72
2024/02/24 01:45:23;;;;;;;0.70;0.70;;;3.80;99.90;;;;;;5115727;28;20192;-71
2024/02/24 01:47:50;;;;;;;0.70;0.70;;;3.70;99.90;;;;;;5115864;28;20241;-72
2024/02/24 01:50:16;;;;;;;0.60;0.60;;;3.80;99.90;;;;;;5104811;28;20251;-71
2024/02/24 01:52:46;;;;;;;0.65;0.65;;;3.70;99.90;;;;;;5095176;28;20207;-72
2024/02/24 01:55:13;;;;;;;0.50;0.50;;;3.70;99.90;;;;;;5095259;28;20238;-72
2024/02/24 01:57:45;;;;;;;0.70;0.70;;;3.70;99.90;;;;;;5094973;28;20269;-71
2024/02/24 02:00:14;;;;;;;0.60;0.60;;;3.60;99.90;;;;;;5076803;28;20196;-72
2024/02/24 02:02:40;;;;;;;0.60;0.60;;;3.70;99.90;;;;;;5112975;28;20203;-72
2024/02/24 02:05:07;;;;;;;0.70;0.70;;;3.70;99.90;;;;;;5115456;28;20191;-71
2024/02/24 02:07:34;;;;;;;0.70;0.70;;;3.60;99.90;;;;;;5096603;28;20574;-72
2024/02/24 02:10:00;;;;;;;0.60;0.60;;;3.60;99.90;;;;;;5115526;28;20193;-68
2024/02/24 02:12:27;;;;;;;0.50;0.50;;;3.70;99.90;;;;;;5115268;28;20248;-68
2024/02/24 02:14:53;;;;;;;0.55;0.55;;;3.60;99.90;;;;;;5115193;28;20271;-69
2024/02/24 02:17:20;;;;;;;0.65;0.65;;;3.60;99.90;;;;;;5115161;28;20203;-70
2024/02/24 02:19:46;;;;;;;0.70;0.70;;;3.50;99.90;;;;;;5114921;28;20191;-69
2024/02/24 02:22:16;;;;;;;0.70;0.70;;;3.50;99.90;;;;;;5115261;28;20191;-68
2024/02/24 02:24:45;;;;;;;0.70;0.70;;;3.40;99.90;;;;;;5114285;28;20639;-68
2024/02/24 02:27:11;;;;;;;0.90;0.90;;;3.40;99.90;;;;;;5114633;28;20195;-68
2024/02/24 02:29:37;;;;;;;0.73;0.73;;;3.50;99.90;;;;;;5114253;28;20197;-69
2024/02/24 02:32:02;;;;;;;0.70;0.70;;;3.40;99.90;;;;;;5115085;28;20248;-69
2024/02/24 02:34:28;;;;;;;0.70;0.70;;;3.50;99.90;;;;;;5114882;28;20214;-69
2024/02/24 02:36:54;;;;;;;0.88;0.88;;;3.50;99.90;;;;;;5114889;28;20195;-70
2024/02/24 02:39:19;;;;;;;0.57;0.57;;;3.40;99.90;;;;;;5096325;28;20207;-69
2024/02/24 02:41:45;;;;;;;0.50;0.50;;;3.40;99.90;;;;;;5114794;28;20183;-69
2024/02/24 02:44:12;;;;;;;0.70;0.70;;;3.40;99.90;;;;;;5115083;28;20196;-68
2024/02/24 02:46:38;;;;;;;0.60;0.60;;;3.50;99.90;;;;;;5102771;28;20196;-69
2024/02/24 02:49:03;;;;;;;0.60;0.60;;;3.50;99.90;;;;;;5094271;28;20206;-68
2024/02/24 02:51:29;;;;;;;0.80;0.80;;;3.50;99.90;;;;;;5094124;28;20664;-68
2024/02/24 02:53:54;;;;;;;0.60;0.60;;;3.50;99.90;;;;;;5094152;28;20180;-69
2024/02/24 02:56:21;;;;;;;0.80;0.80;;;3.60;99.90;;;;;;5094077;28;20200;-69
2024/02/24 02:58:47;;;;;;;0.70;0.70;;;3.50;99.90;;;;;;5092737;28;20204;-68
2024/02/24 03:01:16;;;;;;;0.70;0.70;;;3.60;99.90;;;;;;5114315;28;20304;-68
2024/02/24 03:03:41;;;;;;;0.80;0.80;;;3.60;99.90;;;;;;5114183;28;20325;-68
2024/02/24 03:06:07;;;;;;;0.70;0.70;;;3.60;99.90;;;;;;5114410;28;20266;-69
2024/02/24 03:08:39;;;;;;;0.70;0.70;;;3.60;99.90;;;;;;5114020;28;20202;-68
2024/02/24 03:11:17;;;;;;;0.60;0.60;;;3.60;99.90;;;;;;5114260;28;20195;-68
2024/02/24 03:13:44;;;;;;;0.70;0.70;;;3.70;99.90;;;;;;5113861;28;20227;-68
2024/02/24 03:16:09;;;;;;;0.70;0.70;;;3.70;99.90;;;;;;5114493;28;20739;-69
2024/02/24 03:18:35;;;;;;;0.68;0.68;;;3.70;99.90;;;;;;5095624;28;20208;-74
2024/02/24 03:21:01;;;;;;;0.60;0.60;;;3.70;99.90;;;;;;5114022;28;20183;-74
2024/02/24 03:23:32;;;;;;;0.65;0.65;;;3.70;99.90;;;;;;5113711;28;20191;-74
2024/02/24 03:25:58;;;;;;;0.60;0.60;;;3.70;99.90;;;;;;5113964;28;20206;-74
2024/02/24 03:28:24;;;;;;;0.55;0.55;;;3.70;99.90;;;;;;5113727;28;20195;-74
2024/02/24 03:30:57;;;;;;;0.50;0.50;;;3.70;99.90;;;;;;5095571;28;20245;-74
2024/02/24 03:33:22;;;;;;;0.50;0.50;;;3.70;99.90;;;;;;5113684;28;20694;-73
2024/02/24 03:35:48;;;;;;;0.70;0.70;;;3.70;99.90;;;;;;5095405;28;20210;-74
2024/02/24 03:38:14;;;;;;;0.75;0.75;;;3.80;99.90;;;;;;5113605;28;20204;-74
2024/02/24 03:40:40;;;;;;;0.60;0.60;;;3.70;99.90;;;;;;5113548;28;20245;-74
2024/02/24 03:43:06;;;;;;;0.60;0.60;;;3.70;99.90;;;;;;5113106;28;20218;-74
2024/02/24 03:45:32;;;;;;;0.50;0.50;;;3.70;99.90;;;;;;5113413;28;20626;-74
2024/02/24 03:47:57;;;;;;;0.50;0.50;;;3.70;99.90;;;;;;5113456;28;20192;-74
2024/02/24 03:50:23;;;;;;;0.80;0.80;;;3.70;99.90;;;;;;5095189;28;20195;-74
2024/02/24 03:52:50;;;;;;;0.50;0.50;;;3.60;99.90;;;;;;5113461;28;20188;-75
2024/02/24 03:55:15;;;;;;;0.50;0.50;;;3.60;99.90;;;;;;5113368;28;20666;-74
2024/02/24 03:57:41;;;;;;;0.60;0.60;;;3.60;99.90;;;;;;5113117;28;20206;-74
2024/02/24 04:00:08;;;;;;;0.60;0.60;;;3.60;99.90;;;;;;5113272;28;20199;-74
2024/02/24 04:02:34;;;;;;;0.60;0.60;;;3.50;99.90;;;;;;5101519;28;20239;-73
2024/02/24 04:05:00;;;;;;;0.60;0.60;;;3.50;99.90;;;;;;5113335;28;20266;-74
2024/02/24 04:07:26;;;;;;;0.77;0.77;;;3.40;99.90;;;;;;5094787;28;20729;-74
2024/02/24 04:09:52;;;;;;;0.70;0.70;;;3.40;99.90;;;;;;5095015;28;20227;-74
2024/02/24 04:12:17;;;;;;;0.73;0.73;;;3.40;99.90;;;;;;5113273;28;20580;-74
2024/02/24 04:14:43;;;;;;;0.80;0.80;;;3.30;99.90;;;;;;5112959;28;20716;-74
2024/02/24 04:17:09;;;;;;;0.60;0.60;;;3.40;99.90;;;;;;5113186;28;20218;-74
2024/02/24 04:19:34;;;;;;;0.60;0.60;;;3.30;99.90;;;;;;5112904;28;20667;-74
2024/02/24 04:22:00;;;;;;;0.60;0.60;;;3.40;99.90;;;;;;5113093;28;20191;-74
2024/02/24 04:24:25;;;;;;;1.85;1.50;;;3.40;99.90;;;;;;5112882;28;20655;-74
2024/02/24 04:26:51;;;;;;;0.60;0.60;;;3.40;99.90;;;;;;5094796;28;20215;-72
2024/02/24 04:29:17;;;;;;;0.70;0.70;;;3.40;99.90;;;;;;5113094;28;20191;-71
2024/02/24 04:31:42;;;;;;;0.60;0.60;;;3.50;99.90;;;;;;5112745;28;20214;-71
2024/02/24 04:34:08;;;;;;;0.80;0.80;;;3.50;99.90;;;;;;5094738;28;20368;-71
2024/02/24 04:36:38;;;;;;;0.60;0.60;;;3.40;99.90;;;;;;5112746;28;20566;-71
2024/02/24 04:39:04;;;;;;;0.60;0.60;;;3.40;99.90;;;;;;5112204;28;20209;-71
2024/02/24 04:41:30;;;;;;;0.57;0.57;;;3.30;99.90;;;;;;5112664;28;20192;-71
2024/02/24 04:43:55;;;;;;;0.50;0.50;;;3.30;99.90;;;;;;5112836;28;20176;-72
2024/02/24 04:46:30;;;;;;;0.60;0.60;;;3.40;99.90;;;;;;5112437;28;20566;-71
2024/02/24 04:48:56;;;;;;;0.68;0.68;;;3.40;99.90;;;;;;5116767;28;20678;-71
2024/02/24 04:51:21;;;;;;;0.60;0.60;;;3.50;99.90;;;;;;5098372;28;20199;-72
2024/02/24 04:53:48;;;;;;;0.63;0.63;;;3.50;99.90;;;;;;5116938;28;20195;-71
2024/02/24 04:56:16;;;;;;;0.70;0.70;;;3.50;99.90;;;;;;5098631;28;20202;-71
2024/02/24 04:58:42;;;;;;;0.80;0.80;;;3.50;99.90;;;;;;5098304;28;20680;-72
2024/02/24 05:01:08;;;;;;;0.70;0.70;;;3.60;99.90;;;;;;5116715;28;20248;-71
2024/02/24 05:03:34;;;;;;;0.82;0.82;;;3.60;99.90;;;;;;5116490;28;20184;-71
2024/02/24 05:06:00;;;;;;;0.68;0.68;;;3.60;99.90;;;;;;5116695;28;20603;-72
2024/02/24 05:08:26;;;;;;;0.70;0.70;;;3.60;99.90;;;;;;5098116;28;20200;-72
2024/02/24 05:10:51;;;;;;;0.60;0.60;;;3.50;99.90;;;;;;5116630;28;20191;-71
2024/02/24 05:13:17;;;;;;;0.68;0.68;;;3.50;99.90;;;;;;5098220;28;20195;-72
2024/02/24 05:15:43;;;;;;;0.70;0.70;;;3.50;99.90;;;;;;5116443;28;20203;-71
2024/02/24 05:18:09;;;;;;;0.60;0.60;;;3.50;99.90;;;;;;5116308;28;20207;-71
2024/02/24 05:20:35;;;;;;;0.70;0.70;;;3.50;99.90;;;;;;5116227;28;20210;-71
2024/02/24 05:23:03;;;;;;;0.80;0.80;;;3.60;99.90;;;;;;5116304;28;20546;-71
2024/02/24 05:25:30;;;;;;;0.70;0.70;;;3.50;99.90;;;;;;5097864;28;20682;-72
2024/02/24 05:27:56;;;;;;;0.80;0.80;;;3.50;99.90;;;;;;5116213;28;20543;-72
2024/02/24 05:30:21;;;;;;;0.75;0.75;;;3.50;99.90;;;;;;5097830;28;20202;-71
2024/02/24 05:32:47;;;;;;;0.77;0.77;;;3.50;99.90;;;;;;5097936;28;20651;-71
2024/02/24 05:35:13;;;;;;;0.70;0.70;;;3.40;99.90;;;;;;5106070;28;20192;-72
2024/02/24 05:37:38;;;;;;;0.60;0.60;;;3.40;99.90;;;;;;5077232;28;20261;-72
2024/02/24 05:40:04;;;;;;;0.65;0.65;;;3.40;99.90;;;;;;5095828;28;20223;-74
2024/02/24 05:42:33;;;;;;;0.60;0.60;;;3.50;99.90;;;;;;5095515;28;20271;-73
2024/02/24 05:44:58;;;;;;;0.80;0.80;;;3.50;99.90;;;;;;5095593;28;20184;-73
2024/02/24 05:47:24;;;;;;;0.63;0.63;;;3.50;99.90;;;;;;5111299;28;20286;-73
2024/02/24 05:49:50;;;;;;;0.90;0.90;;;3.40;99.90;;;;;;5118261;27;20278;-75
2024/02/24 05:52:18;;;;;;;0.70;0.70;;;3.40;99.90;;;;;;5116135;28;20569;-75
2024/02/24 05:54:44;;;;;;;1.00;1.00;;;3.40;99.90;;;;;;5097317;28;20599;-74
2024/02/24 05:57:10;;;;;;;0.50;0.50;;;3.40;99.90;;;;;;5097485;28;20284;-74
2024/02/24 05:59:36;;;;;;;0.75;0.75;;;3.30;99.90;;;;;;5096037;28;20215;-73
2024/02/24 06:02:02;;;;;;;0.60;0.60;;;3.20;99.90;;;;;;5115665;28;20215;-73
2024/02/24 06:04:27;;;;;;;0.60;0.60;;;3.20;99.90;;;;;;5115399;28;20187;-73
2024/02/24 06:06:53;;;;;;;0.50;0.50;;;3.20;99.90;;;;;;5118473;27;20251;-73
2024/02/24 06:09:18;;;;;;;0.60;0.60;;;3.30;99.90;;;;;;5115687;27;20208;-73
2024/02/24 06:11:44;;;;;;;0.68;0.68;;;3.40;99.90;;;;;;5115463;28;20195;-73
2024/02/24 06:14:10;;;;;;;0.50;0.50;;;3.40;99.90;;;;;;5105684;28;20583;-73
2024/02/24 06:16:35;;;;;;;0.60;0.60;;;3.40;99.90;;;;;;5094313;28;20196;-74
2024/02/24 06:19:01;;;;;;;0.60;0.60;;;3.30;99.90;;;;;;5094309;28;20548;-73
2024/02/24 06:21:29;;;;;;;9.63;1.35;;;3.30;99.90;;;;;;5094189;28;20270;-73
2024/02/24 06:23:55;;;;;;;0.70;0.70;;;3.20;99.90;;;;;;5094183;28;20275;-73
2024/02/24 06:26:20;;;;;;;0.70;0.70;;;3.20;99.90;;;;;;5094128;28;20242;-73
2024/02/24 06:28:46;;;;;;;0.55;0.55;;;3.20;99.90;;;;;;5076188;28;20196;-73
2024/02/24 06:31:13;;;;;;;0.50;0.50;;;3.10;99.90;;;;;;5094254;28;20227;-73
2024/02/24 06:33:39;;;;;;;0.50;0.50;;;3.10;99.90;;;;;;5094511;28;20199;-73
2024/02/24 06:36:06;;;;;;;0.80;0.80;;;3.10;99.90;;;;;;5094598;28;20245;-73
2024/02/24 06:38:31;;;;;;;0.70;0.70;;;3.10;99.90;;;;;;5075945;28;20734;-73
2024/02/24 06:40:57;;;;;;;3.53;1.08;;;3.10;99.90;;;;;;5094533;28;20184;-73
2024/02/24 06:43:23;;;;;;;0.60;0.60;;;3.10;99.90;;;;;;5093676;28;20188;-72
2024/02/24 06:45:48;;;;;;;0.55;0.55;;;3.00;99.90;;;;;;5094122;28;20245;-73
2024/02/24 06:48:15;;;;;;;0.57;0.57;;;3.10;99.90;;;;;;5094231;28;20204;-73
2024/02/24 06:50:41;;;;;;;1.58;1.20;;;3.10;99.90;;;;;;5076157;28;20564;-68
2024/02/24 06:53:07;;;;;;;3.20;1.58;;;3.20;99.90;;;;;;5094211;28;20196;-68
2024/02/24 06:55:33;;;;;;;0.60;0.60;;;3.10;99.90;;;;;;5094050;28;20199;-68
2024/02/24 06:57:58;;;;;;;0.57;0.57;;;3.10;99.90;;;;;;5093943;28;20204;-68
2024/02/24 07:00:24;;;;;;;0.50;0.50;;;3.00;99.90;;;;;;5093987;28;20220;-68
2024/02/24 07:02:50;;;;;;;0.52;0.52;;;3.10;99.90;;;;;;5094017;28;20188;-68
2024/02/24 07:05:17;;;;;;;0.60;0.60;;;3.20;99.90;;;;;;5093861;28;20548;-69
2024/02/24 07:07:43;;;;;;;0.50;0.50;;;3.30;99.90;;;;;;5093682;28;20203;-69
2024/02/24 07:10:09;;;;;;;0.70;0.70;;;3.30;99.90;;;;;;5093502;28;20616;-68
2024/02/24 07:12:35;;;;;;;0.50;0.50;;;3.40;99.90;;;;;;5075447;28;20207;-68
2024/02/24 07:15:01;;;;;;;0.60;0.60;;;3.50;99.90;;;;;;5091920;28;20237;-68
2024/02/24 07:17:28;;;;;;;0.60;0.60;;;3.50;99.90;;;;;;5113780;28;20274;-69
2024/02/24 07:19:54;;;;;;;0.80;0.80;;;3.50;99.90;;;;;;5095733;28;20572;-70
2024/02/24 07:22:20;;;;;;;0.73;0.73;;;3.50;99.90;;;;;;5113969;28;20248;-69
2024/02/24 07:24:46;;;;;;;0.70;0.70;;;3.60;99.90;;;;;;5095850;28;20199;-68
2024/02/24 07:27:12;;;;;;;0.70;0.70;;;3.60;99.90;;;;;;5113610;28;20187;-68
2024/02/24 07:29:38;;;;;;;0.60;0.60;;;3.60;99.90;;;;;;5113651;28;20286;-68
2024/02/24 07:32:04;;;;;;;0.60;0.60;;;3.70;99.90;;;;;;5114181;28;20188;-68
2024/02/24 07:34:30;;;;;;;1.95;1.02;;;3.70;99.90;;;;;;5095460;28;20192;-69
2024/02/24 07:36:57;;;;;;;0.50;0.50;;;3.70;99.90;;;;;;5095543;28;20693;-69
2024/02/24 07:39:23;;;;;;;0.52;0.52;;;3.70;99.90;;;;;;5095038;28;20215;-70
2024/02/24 07:41:48;;;;;;;0.52;0.52;;;3.70;99.90;;;;;;5095406;28;20537;-68
2024/02/24 07:44:14;;;;;;;0.52;0.52;;;3.80;99.90;;;;;;5113684;28;20187;-68
2024/02/24 07:46:40;;;;;;;0.50;0.50;;;3.90;99.90;;;;;;5095122;28;20222;-68
2024/02/24 07:49:06;;;;;;;0.60;0.60;;;4.00;99.90;;;;;;5095363;28;20203;-69
2024/02/24 07:51:31;;;;;;;0.60;0.60;;;4.20;99.90;;;;;;5113332;28;20598;-69
2024/02/24 07:53:57;;;;;;;0.60;0.60;;;4.40;99.90;;;;;;5113535;28;20245;-68
2024/02/24 07:56:24;;;;;;;0.70;0.70;;;4.60;99.90;;;;;;5113364;28;20619;-69
2024/02/24 07:58:50;;;;;;;0.63;0.63;;;4.70;99.90;;;;;;5113583;28;20586;-69
2024/02/24 08:01:17;;;;;;;0.50;0.50;;;4.80;99.90;;;;;;5113504;28;20240;-71
2024/02/24 08:03:43;;;;;;;0.70;0.70;;;4.90;99.90;;;;;;5094924;28;20658;-71
2024/02/24 08:06:09;;;;;;;0.60;0.60;;;5.00;99.90;;;;;;5095375;28;20655;-71
2024/02/24 08:08:36;;;;;;;0.50;0.50;;;5.00;99.90;;;;;;5094776;28;20195;-71
2024/02/24 08:11:02;;;;;;;0.60;0.60;;;4.90;99.90;;;;;;5095001;28;20210;-71
2024/02/24 08:13:28;;;;;;;0.40;0.40;;;4.90;99.90;;;;;;5112912;28;20747;-71
2024/02/24 08:15:55;;;;;;;0.60;0.60;;;4.90;99.90;;;;;;5095146;28;20215;-71
2024/02/24 08:18:22;;;;;;;0.70;0.70;;;4.90;99.90;;;;;;5112958;28;20705;-71
2024/02/24 08:20:48;;;;;;;0.80;0.80;;;5.00;99.90;;;;;;5113003;28;20248;-71
2024/02/24 08:23:14;;;;;;;0.60;0.60;;;5.00;99.90;;;;;;5090027;28;20184;-71
2024/02/24 08:25:40;;;;;;;0.60;0.60;;;5.10;99.90;;;;;;5092405;28;20246;-71
2024/02/24 08:28:05;;;;;;;0.60;0.60;;;5.20;99.90;;;;;;5092644;28;20192;-71
2024/02/24 08:30:31;;;;;;;0.70;0.70;;;5.20;99.90;;;;;;5092514;28;20248;-71
2024/02/24 08:32:57;;;;;;;0.60;0.60;;;5.30;99.90;;;;;;5092694;28;20191;-71
2024/02/24 08:35:22;;;;;;;1.15;1.08;;;5.30;99.90;;;;;;5101907;28;20666;-71
2024/02/24 08:37:49;;;;;;;0.60;0.60;;;5.40;99.90;;;;;;5094542;28;20743;-71
2024/02/24 08:40:15;;;;;;;0.63;0.63;;;5.40;99.90;;;;;;5113029;28;20218;-71
2024/02/24 08:42:41;;;;;;;0.70;0.70;;;5.30;99.90;;;;;;5112748;28;20659;-70
2024/02/24 08:45:06;;;;;;;0.63;0.63;;;5.20;99.90;;;;;;5094633;28;20199;-70
2024/02/24 08:47:32;;;;;;;0.70;0.70;;;5.20;99.90;;;;;;5112607;28;20320;-70
2024/02/24 08:49:58;;;;;;;0.70;0.70;;;5.00;99.90;;;;;;5112877;28;20195;-70
2024/02/24 08:52:24;;;;;;;0.70;0.70;;;5.00;99.90;;;;;;5112748;28;20191;-71
2024/02/24 08:54:49;;;;;;;0.70;0.70;;;5.10;99.90;;;;;;5112837;28;20202;-71
2024/02/24 08:57:16;;;;;;;0.80;0.80;;;5.20;99.90;;;;;;5094635;28;20270;-71
2024/02/24 08:59:42;;;;;;;0.70;0.70;;;5.30;99.90;;;;;;5112365;28;20199;-71
2024/02/24 09:02:07;;;;;;;0.63;0.63;;;5.40;99.90;;;;;;5112772;28;20237;-71
2024/02/24 09:04:37;;;;;;;0.80;0.80;;;5.50;99.90;;;;;;5094190;28;20191;-71
2024/02/24 09:07:03;;;;;;;0.70;0.70;;;5.50;99.90;;;;;;5094383;28;20191;-71
2024/02/24 09:09:29;;;;;;;0.65;0.65;;;5.50;99.90;;;;;;5112454;28;20595;-74
2024/02/24 09:11:54;;;;;;;0.70;0.70;;;5.50;99.90;;;;;;5112616;28;20199;-75
2024/02/24 09:14:20;;;;;;;0.60;0.60;;;5.40;99.90;;;;;;5112382;28;20228;-74
2024/02/24 09:16:46;;;;;;;0.68;0.68;;;5.30;99.90;;;;;;5112548;28;20256;-74
2024/02/24 09:19:11;;;;;;;0.80;0.80;;;5.40;99.90;;;;;;5111810;28;20269;-74
2024/02/24 09:21:37;;;;;;;0.80;0.80;;;5.30;99.90;;;;;;5112230;28;20196;-74
2024/02/24 09:24:03;;;;;;;0.75;0.75;;;5.30;99.90;;;;;;5094409;28;20187;-74
2024/02/24 09:26:29;;;;;;;0.80;0.80;;;5.30;99.90;;;;;;5094054;28;20577;-74
2024/02/24 09:28:54;;;;;;;0.70;0.70;;;5.50;99.90;;;;;;5094172;28;20674;-74
2024/02/24 09:31:20;;;;;;;0.73;0.73;;;5.70;99.90;;;;;;5112115;28;20203;-74
2024/02/24 09:33:54;;;;;;;0.75;0.75;;;6.00;99.90;;;;;;5114408;28;20553;-74
2024/02/24 09:36:20;;;;;;;0.65;0.65;;;6.20;99.90;;;;;;5097642;28;20235;-74
2024/02/24 09:38:45;;;;;;;0.60;0.60;;;6.40;99.90;;;;;;5097669;28;20284;-74
2024/02/24 09:41:11;;;;;;;0.80;0.80;;;6.50;99.90;;;;;;5097830;28;20670;-74
2024/02/24 09:43:38;;;;;;;0.77;0.77;;;6.80;99.90;;;;;;5115800;28;20772;-74
2024/02/24 09:46:05;;;;;;;0.70;0.70;;;6.80;99.90;;;;;;5115903;28;20685;-74
2024/02/24 09:48:31;;;;;;;0.70;0.70;;;6.80;99.90;;;;;;5115699;28;20214;-74
2024/02/24 09:50:59;;;;;;;0.70;0.70;;;6.70;99.90;;;;;;5115834;28;20231;-74
2024/02/24 09:53:25;;;;;;;0.80;0.80;;;6.40;99.90;;;;;;5097479;28;20226;-74
2024/02/24 09:55:52;;;;;;;0.70;0.70;;;6.20;99.90;;;;;;5115674;28;20227;-74
2024/02/24 09:58:19;;;;;;;0.63;0.63;;;6.10;99.90;;;;;;5097385;28;20614;-74
2024/02/24 10:00:45;;;;;;;0.63;0.63;;;5.80;99.90;;;;;;5115648;28;20219;-74
2024/02/24 10:03:11;;;;;;;0.73;0.73;;;5.40;99.90;;;;;;5115550;28;20179;-74
2024/02/24 10:05:39;;;;;;;1.20;1.10;;;5.40;99.90;;;;;;5115472;28;20270;-74
2024/02/24 10:08:06;;;;;;;0.55;0.55;;;5.40;99.90;;;;;;5096992;28;20252;-75
2024/02/24 10:10:31;;;;;;;0.70;0.70;;;5.50;99.90;;;;;;5115324;28;20286;-74
2024/02/24 10:13:02;;;;;;;0.70;0.70;;;5.50;99.90;;;;;;5115368;28;20278;-74
2024/02/24 10:15:29;;;;;;;0.63;0.63;;;5.60;99.90;;;;;;5114694;28;20713;-74
2024/02/24 10:17:56;;;;;;;0.70;0.70;;;5.60;99.90;;;;;;5115320;28;20234;-73
2024/02/24 10:20:22;;;;;;;0.70;0.70;;;5.90;99.90;;;;;;5115192;28;20629;-70
2024/02/24 10:22:48;;;;;;;0.60;0.60;;;6.40;99.90;;;;;;5115229;28;20219;-71
2024/02/24 10:25:14;;;;;;;0.70;0.70;;;7.00;99.90;;;;;;5096946;28;20191;-69
2024/02/24 10:27:44;;;;;;;0.70;0.70;;;7.70;99.90;;;;;;5114821;28;20195;-69
2024/02/24 10:30:11;;;;;;;0.77;0.77;;;7.90;99.90;;;;;;5096803;28;20667;-69
2024/02/24 10:32:37;;;;;;;0.70;0.70;;;7.70;99.90;;;;;;5114984;28;20643;-70
2024/02/24 10:35:04;;;;;;;0.70;0.70;;;7.30;99.90;;;;;;5115076;28;20199;-70
2024/02/24 10:37:35;;;;;;;0.65;0.65;;;7.10;99.90;;;;;;5096462;28;20214;-69
2024/02/24 10:40:03;;;;;;;0.73;0.73;;;7.00;99.90;;;;;;5096638;28;20726;-69
2024/02/24 10:42:30;;;;;;;0.60;0.60;;;6.80;99.90;;;;;;5114669;28;20206;-69
2024/02/24 10:44:56;;;;;;;0.70;0.70;;;6.50;99.90;;;;;;5095780;28;20196;-69
2024/02/24 10:47:22;;;;;;;0.90;0.90;;;6.30;99.90;;;;;;5114628;28;20191;-69
2024/02/24 10:49:48;;;;;;;0.80;0.80;;;6.10;99.90;;;;;;5114751;28;20710;-70
2024/02/24 10:52:19;;;;;;;0.68;0.68;;;6.00;99.90;;;;;;5096433;28;20286;-69
2024/02/24 10:54:50;;;;;;;0.80;0.80;;;6.00;99.90;;;;;;5114660;28;20192;-70
2024/02/24 10:57:18;;;;;;;0.70;0.70;;;6.00;99.90;;;;;;5096371;28;20256;-68
2024/02/24 10:59:44;;;;;;;0.70;0.70;;;6.00;99.90;;;;;;5096368;28;20303;-69
2024/02/24 11:02:12;;;;;;;0.80;0.80;;;5.90;99.90;;;;;;5114494;28;20659;-70
2024/02/24 11:04:39;;;;;;;0.65;0.65;;;5.70;99.90;;;;;;5114170;28;20271;-69
2024/02/24 11:07:17;;;;;;;4.32;2.90;;;5.70;99.90;;;;;;5096018;28;20196;-69
2024/02/24 11:09:48;;;;;;;0.60;0.60;;;5.50;99.90;;;;;;5114138;28;20187;-69
2024/02/24 11:12:14;;;;;;;0.73;0.73;;;5.40;99.90;;;;;;5113961;28;20274;-68
2024/02/24 11:14:41;;;;;;;0.60;0.60;;;5.40;99.90;;;;;;5113891;28;20233;-70
2024/02/24 11:17:09;;;;;;;0.80;0.80;;;5.50;99.90;;;;;;5114222;28;20196;-69
2024/02/24 11:19:42;;;;;;;0.60;0.60;;;5.50;99.90;;;;;;5095604;28;20204;-69
2024/02/24 11:22:11;;;;;;;1.00;0.95;;;5.70;99.90;;;;;;5114126;28;20266;-69
2024/02/24 11:24:37;;;;;;;0.70;0.70;;;5.90;99.90;;;;;;5095756;28;20203;-70
2024/02/24 11:27:03;;;;;;;0.65;0.65;;;5.90;99.90;;;;;;5095799;28;20202;-70
2024/02/24 11:29:30;;;;;;;0.75;0.75;;;5.80;99.90;;;;;;5113853;28;20627;-71
2024/02/24 11:32:12;;;;;;;0.50;0.50;;;5.90;99.90;;;;;;5113927;28;20651;-72
2024/02/24 11:34:42;;;;;;;0.70;0.70;;;6.10;99.90;;;;;;5113722;28;20199;-71
2024/02/24 11:37:10;;;;;;;0.60;0.60;;;6.40;99.90;;;;;;5113804;28;20195;-71
2024/02/24 11:39:39;;;;;;;0.65;0.65;;;7.00;99.90;;;;;;5113488;28;20708;-71
2024/02/24 11:42:06;;;;;;;0.60;0.60;;;7.40;99.90;;;;;;5095445;28;20663;-71
2024/02/24 11:44:32;;;;;;;0.60;0.60;;;7.90;99.90;;;;;;5113527;28;20191;-71
2024/02/24 11:46:58;;;;;;;0.60;0.60;;;8.40;99.90;;;;;;5113630;28;20191;-71
2024/02/24 11:49:24;;;;;;;0.68;0.68;;;8.40;99.90;;;;;;5113482;28;20229;-71
2024/02/24 11:51:51;;;;;;;0.75;0.75;;;8.20;99.90;;;;;;5095324;28;20227;-72
2024/02/24 11:54:17;;;;;;;0.70;0.70;;;8.40;99.90;;;;;;5095336;28;20199;-71
2024/02/24 11:56:43;;;;;;;0.70;0.70;;;8.30;99.90;;;;;;5095061;28;20188;-71
2024/02/24 11:59:09;;;;;;;0.70;0.70;;;7.70;99.90;;;;;;5113337;28;20214;-71
2024/02/24 12:01:36;;;;;;;0.60;0.60;;;7.50;99.90;;;;;;5113281;28;20187;-71
2024/02/24 12:04:02;;;;;;;0.70;0.70;;;7.30;99.90;;;;;;5113290;28;20183;-71
2024/02/24 12:06:30;;;;;;;0.70;0.70;;;7.10;99.90;;;;;;5113298;28;20188;-71
2024/02/24 12:08:57;;;;;;;0.80;0.80;;;7.10;99.90;;;;;;5111152;28;20280;-71
2024/02/24 12:11:24;;;;;;;0.70;0.70;;;7.00;99.90;;;;;;5113217;28;20195;-71
2024/02/24 12:13:50;;;;;;;0.80;0.80;;;6.90;99.90;;;;;;5113106;28;20220;-71
2024/02/24 12:16:19;;;;;;;0.60;0.60;;;6.90;99.90;;;;;;5113240;28;20198;-70
2024/02/24 12:18:46;;;;;;;0.80;0.80;;;6.90;99.90;;;;;;5113036;28;20199;-71
2024/02/24 12:21:12;;;;;;;0.73;0.73;;;6.70;99.90;;;;;;5113054;28;20192;-71
2024/02/24 12:23:40;;;;;;;0.70;0.70;;;6.60;99.90;;;;;;5095010;28;20700;-71
2024/02/24 12:26:12;;;;;;;1.00;1.00;;;6.50;99.90;;;;;;5113132;28;20678;-71
2024/02/24 12:28:41;;;;;;;0.93;0.93;;;6.50;99.90;;;;;;5112802;28;20568;-71
2024/02/24 12:31:11;;;;;;;0.80;0.80;;;6.50;99.90;;;;;;5113107;28;20214;-71
2024/02/24 12:33:37;;;;;;;0.60;0.60;;;6.50;99.90;;;;;;5112883;28;20187;-70
2024/02/24 12:36:07;;;;;;;0.70;0.70;;;6.60;99.90;;;;;;5113042;28;20187;-71
2024/02/24 12:38:33;;;;;;;0.77;0.77;;;6.70;99.90;;;;;;5112691;28;20271;-71
2024/02/24 12:40:59;;;;;;;0.70;0.70;;;6.60;99.90;;;;;;5113074;28;20195;-73
2024/02/24 12:43:24;;;;;;;0.70;0.70;;;6.60;99.90;;;;;;5094523;28;20283;-73
2024/02/24 12:45:51;;;;;;;2.25;1.13;;;6.50;99.90;;;;;;5094600;28;20244;-73
2024/02/24 12:48:17;;;;;;;0.77;0.77;;;6.40;99.90;;;;;;5112835;28;20192;-73
2024/02/24 12:50:47;;;;;;;0.70;0.70;;;6.20;99.90;;;;;;5094480;28;20647;-72
2024/02/24 12:53:13;;;;;;;0.85;0.85;;;6.20;99.90;;;;;;5112931;28;20211;-73